createdAt,value
2016-11-04T00:00:07.635Z,0
2016-11-04T00:00:48.132Z,0
2016-11-04T00:01:28.591Z,0
2016-11-04T00:02:09.071Z,0
2016-11-04T00:02:49.539Z,0
2016-11-04T00:03:30.023Z,0
2016-11-04T00:04:10.530Z,0
2016-11-04T00:04:51.026Z,0
2016-11-04T00:05:31.506Z,0
2016-11-04T00:06:12.003Z,0
2016-11-04T00:06:52.475Z,0
2016-11-04T00:07:32.961Z,0
2016-11-04T00:08:13.409Z,0
2016-11-04T00:08:53.872Z,0
2016-11-04T00:09:34.379Z,0
2016-11-04T00:10:14.873Z,0
2016-11-04T00:10:55.370Z,0
2016-11-04T00:11:35.858Z,0
2016-11-04T00:12:16.340Z,0
2016-11-04T00:12:56.829Z,0
2016-11-04T00:13:37.329Z,0
2016-11-04T00:14:17.795Z,0
2016-11-04T00:14:58.293Z,0
2016-11-04T00:15:38.789Z,0
2016-11-04T00:16:19.267Z,0
2016-11-04T00:16:59.786Z,0
2016-11-04T00:17:40.279Z,0
2016-11-04T00:18:20.895Z,0
2016-11-04T00:19:01.367Z,0
2016-11-04T00:19:41.823Z,0
2016-11-04T00:20:22.319Z,0
2016-11-04T00:21:02.815Z,0
2016-11-04T00:21:43.333Z,0
2016-11-04T00:22:23.791Z,0
2016-11-04T00:23:04.265Z,0
2016-11-04T00:23:44.723Z,0
2016-11-04T00:24:25.211Z,0
2016-11-04T00:25:05.696Z,0
2016-11-04T00:25:46.204Z,0
2016-11-04T00:26:26.682Z,0
2016-11-04T00:27:07.169Z,0
2016-11-04T00:27:47.640Z,0
2016-11-04T00:28:28.110Z,0
2016-11-04T00:29:08.553Z,0
2016-11-04T00:29:49.045Z,0
2016-11-04T00:30:29.559Z,0
2016-11-04T00:31:10.056Z,0
2016-11-04T00:31:50.573Z,0
2016-11-04T00:32:31.047Z,0
2016-11-04T00:33:11.555Z,0
2016-11-04T00:33:52.022Z,0
2016-11-04T00:34:32.532Z,0
2016-11-04T00:35:12.978Z,0
2016-11-04T00:35:53.497Z,0
2016-11-04T00:36:33.969Z,0
2016-11-04T00:37:14.468Z,0
2016-11-04T00:37:54.936Z,0
2016-11-04T00:38:35.442Z,0
2016-11-04T00:39:15.908Z,0
2016-11-04T00:39:56.401Z,0
2016-11-04T00:40:36.866Z,0
2016-11-04T00:41:17.355Z,0
2016-11-04T00:41:57.840Z,0
2016-11-04T00:42:38.339Z,0
2016-11-04T00:43:18.794Z,0
2016-11-04T00:43:59.260Z,0
2016-11-04T00:44:39.750Z,0
2016-11-04T00:45:20.213Z,0
2016-11-04T00:46:00.735Z,0
2016-11-04T00:46:41.206Z,0
2016-11-04T00:47:21.708Z,0
2016-11-04T00:48:02.187Z,0
2016-11-04T00:48:42.652Z,0
2016-11-04T00:49:23.151Z,0
2016-11-04T00:50:03.620Z,0
2016-11-04T00:50:44.125Z,0
2016-11-04T00:51:24.615Z,0
2016-11-04T00:52:05.101Z,0
2016-11-04T00:52:45.570Z,0
2016-11-04T00:53:26.066Z,0
2016-11-04T00:54:06.556Z,0
2016-11-04T00:54:47.046Z,0
2016-11-04T00:55:27.558Z,0
2016-11-04T00:56:08.014Z,0
2016-11-04T00:56:48.497Z,0
2016-11-04T00:57:28.993Z,0
2016-11-04T00:58:09.500Z,0
2016-11-04T00:58:49.995Z,0
2016-11-04T00:59:30.475Z,0
2016-11-04T01:00:10.976Z,0
2016-11-04T01:00:51.456Z,0
2016-11-04T01:01:31.912Z,0
2016-11-04T01:02:12.408Z,0
2016-11-04T01:02:52.887Z,0
2016-11-04T01:03:33.367Z,0
2016-11-04T01:04:13.841Z,0
2016-11-04T01:04:54.313Z,0
2016-11-04T01:05:34.830Z,0
2016-11-04T01:06:15.323Z,0
2016-11-04T01:06:55.790Z,0
2016-11-04T01:07:36.295Z,0
2016-11-04T01:08:16.812Z,0
2016-11-04T01:08:57.259Z,0
2016-11-04T01:09:37.736Z,0
2016-11-04T01:10:18.257Z,0
2016-11-04T01:10:58.766Z,0
2016-11-04T01:11:39.258Z,0
2016-11-04T01:12:19.763Z,0
2016-11-04T01:13:00.247Z,0
2016-11-04T01:13:40.722Z,0
2016-11-04T01:14:21.210Z,0
2016-11-04T01:15:01.660Z,0
2016-11-04T01:15:42.181Z,0
2016-11-04T01:16:22.655Z,0
2016-11-04T01:17:03.150Z,0
2016-11-04T01:17:43.610Z,0
2016-11-04T01:18:24.105Z,0
2016-11-04T01:19:04.602Z,0
2016-11-04T01:19:45.106Z,0
2016-11-04T01:20:25.613Z,0
2016-11-04T01:21:06.090Z,0
2016-11-04T01:21:46.578Z,0
2016-11-04T01:22:27.083Z,0
2016-11-04T01:23:07.551Z,0
2016-11-04T01:23:48.037Z,0
2016-11-04T01:24:28.518Z,0
2016-11-04T01:25:08.962Z,0
2016-11-04T01:25:49.434Z,0
2016-11-04T01:26:29.943Z,0
2016-11-04T01:27:10.411Z,0
2016-11-04T01:27:50.866Z,0
2016-11-04T01:28:31.352Z,0
2016-11-04T01:29:11.846Z,0
2016-11-04T01:29:52.334Z,0
2016-11-04T01:30:32.828Z,0
2016-11-04T01:31:13.303Z,0
2016-11-04T01:31:53.782Z,0
2016-11-04T01:32:34.310Z,0
2016-11-04T01:33:14.766Z,0
2016-11-04T01:33:55.232Z,0
2016-11-04T01:34:35.701Z,0
2016-11-04T01:35:16.236Z,0
2016-11-04T01:35:56.702Z,0
2016-11-04T01:36:37.164Z,0
2016-11-04T01:37:17.657Z,0
2016-11-04T01:37:58.134Z,0
2016-11-04T01:38:38.629Z,0
2016-11-04T01:39:19.131Z,0
2016-11-04T01:39:59.669Z,0
2016-11-04T01:40:40.139Z,0
2016-11-04T01:41:20.626Z,0
2016-11-04T01:42:01.126Z,0
2016-11-04T01:42:41.589Z,0
2016-11-04T01:43:22.077Z,0
2016-11-04T01:44:02.558Z,0
2016-11-04T01:44:43.072Z,0
2016-11-04T01:45:23.550Z,0
2016-11-04T01:46:04.066Z,0
2016-11-04T01:46:44.580Z,0
2016-11-04T01:47:25.074Z,0
2016-11-04T01:48:05.554Z,0
2016-11-04T01:48:46.027Z,0
2016-11-04T01:49:26.515Z,0
2016-11-04T01:50:07.013Z,0
2016-11-04T01:50:47.482Z,0
2016-11-04T01:51:27.960Z,0
2016-11-04T01:52:08.447Z,0
2016-11-04T01:52:48.928Z,0
2016-11-04T01:53:29.453Z,0
2016-11-04T01:54:09.980Z,0
2016-11-04T01:54:50.433Z,0
2016-11-04T01:55:30.915Z,0
2016-11-04T01:56:11.376Z,0
2016-11-04T01:56:51.866Z,0
2016-11-04T01:57:32.368Z,0
2016-11-04T01:58:12.857Z,0
2016-11-04T01:58:53.331Z,0
2016-11-04T01:59:33.813Z,0
2016-11-04T02:00:14.267Z,0
2016-11-04T02:00:54.772Z,0
2016-11-04T02:01:35.287Z,0
2016-11-04T02:02:15.724Z,0
2016-11-04T02:02:56.235Z,0
2016-11-04T02:03:36.700Z,0
2016-11-04T02:04:17.203Z,0
2016-11-04T02:04:57.671Z,0
2016-11-04T02:05:38.168Z,0
2016-11-04T02:06:18.659Z,0
2016-11-04T02:06:59.142Z,0
2016-11-04T02:07:39.601Z,0
2016-11-04T02:08:20.054Z,0
2016-11-04T02:09:00.564Z,0
2016-11-04T02:09:41.049Z,0
2016-11-04T02:10:21.514Z,0
2016-11-04T02:11:02.005Z,0
2016-11-04T02:11:42.485Z,0
2016-11-04T02:12:22.961Z,0
2016-11-04T02:13:03.458Z,0
2016-11-04T02:13:43.946Z,0
2016-11-04T02:14:24.450Z,0
2016-11-04T02:15:04.912Z,0
2016-11-04T02:15:45.434Z,0
2016-11-04T02:16:25.914Z,0
2016-11-04T02:17:06.415Z,0
2016-11-04T02:17:46.906Z,0
2016-11-04T02:18:27.429Z,0
2016-11-04T02:19:07.916Z,0
2016-11-04T02:19:48.393Z,0
2016-11-04T02:20:28.902Z,0
2016-11-04T02:21:09.391Z,0
2016-11-04T02:21:49.921Z,0
2016-11-04T02:22:30.406Z,0
2016-11-04T02:23:10.910Z,0
2016-11-04T02:23:51.380Z,0
2016-11-04T02:24:31.868Z,0
2016-11-04T02:25:12.357Z,0
2016-11-04T02:25:52.827Z,0
2016-11-04T02:26:33.336Z,0
2016-11-04T02:27:13.813Z,0
2016-11-04T02:27:54.262Z,0
2016-11-04T02:28:34.726Z,0
2016-11-04T02:29:15.228Z,0
2016-11-04T02:29:55.709Z,0
2016-11-04T02:30:36.183Z,0
2016-11-04T02:31:16.668Z,0
2016-11-04T02:31:57.174Z,0
2016-11-04T02:32:37.644Z,0
2016-11-04T02:33:18.151Z,0
2016-11-04T02:33:58.591Z,0
2016-11-04T02:34:39.082Z,0
2016-11-04T02:35:19.624Z,0
2016-11-04T02:36:00.069Z,0
2016-11-04T02:36:40.548Z,0
2016-11-04T02:37:21.060Z,0
2016-11-04T02:38:01.545Z,0
2016-11-04T02:38:42.043Z,0
2016-11-04T02:39:22.533Z,0
2016-11-04T02:40:02.994Z,0
2016-11-04T02:40:43.485Z,0
2016-11-04T02:41:23.956Z,0
2016-11-04T02:42:04.449Z,0
2016-11-04T02:42:44.932Z,0
2016-11-04T02:43:25.407Z,0
2016-11-04T02:44:05.964Z,0
2016-11-04T02:44:46.420Z,0
2016-11-04T02:45:26.886Z,0
2016-11-04T02:46:07.360Z,0
2016-11-04T02:46:47.862Z,0
2016-11-04T02:47:28.327Z,0
2016-11-04T02:48:08.817Z,0
2016-11-04T02:48:49.289Z,0
2016-11-04T02:49:29.782Z,0
2016-11-04T02:50:10.264Z,0
2016-11-04T02:50:50.779Z,0
2016-11-04T02:51:31.293Z,0
2016-11-04T02:52:11.775Z,0
2016-11-04T02:52:52.258Z,0
2016-11-04T02:53:32.746Z,0
2016-11-04T02:54:13.236Z,0
2016-11-04T02:54:53.715Z,0
2016-11-04T02:55:34.207Z,0
2016-11-04T02:56:14.688Z,0
2016-11-04T02:56:55.171Z,0
2016-11-04T02:57:35.645Z,0
2016-11-04T02:58:16.122Z,0
2016-11-04T02:58:56.609Z,0
2016-11-04T02:59:37.091Z,0
2016-11-04T03:00:17.571Z,0
2016-11-04T03:00:58.035Z,0
2016-11-04T03:01:38.517Z,0
2016-11-04T03:02:18.985Z,0
2016-11-04T03:02:59.505Z,0
2016-11-04T03:03:39.947Z,0
2016-11-04T03:04:20.472Z,0
2016-11-04T03:05:00.934Z,0
2016-11-04T03:05:41.416Z,0
2016-11-04T03:06:21.914Z,0
2016-11-04T03:07:02.400Z,0
2016-11-04T03:07:42.851Z,0
2016-11-04T03:08:23.355Z,0
2016-11-04T03:09:03.843Z,0
2016-11-04T03:09:44.336Z,0
2016-11-04T03:10:24.824Z,0
2016-11-04T03:11:05.338Z,0
2016-11-04T03:11:45.814Z,0
2016-11-04T03:12:26.292Z,0
2016-11-04T03:13:06.798Z,0
2016-11-04T03:13:47.264Z,0
2016-11-04T03:14:27.734Z,0
2016-11-04T03:15:08.202Z,0
2016-11-04T03:15:48.716Z,0
2016-11-04T03:16:29.204Z,0
2016-11-04T03:17:09.686Z,0
2016-11-04T03:17:50.189Z,0
2016-11-04T03:18:30.654Z,0
2016-11-04T03:19:11.154Z,0
2016-11-04T03:19:51.630Z,0
2016-11-04T03:20:32.111Z,0
2016-11-04T03:21:12.613Z,0
2016-11-04T03:21:53.088Z,0
2016-11-04T03:22:33.559Z,0
2016-11-04T03:23:14.042Z,0
2016-11-04T03:23:54.528Z,0
2016-11-04T03:24:34.980Z,0
2016-11-04T03:25:15.469Z,0
2016-11-04T03:25:55.929Z,0
2016-11-04T03:26:36.463Z,0
2016-11-04T03:27:16.945Z,0
2016-11-04T03:27:57.461Z,0
2016-11-04T03:28:37.943Z,0
2016-11-04T03:29:18.435Z,0
2016-11-04T03:29:58.949Z,0
2016-11-04T03:30:39.446Z,0
2016-11-04T03:31:19.966Z,0
2016-11-04T03:32:00.449Z,0
2016-11-04T03:32:40.911Z,0
2016-11-04T03:33:21.392Z,0
2016-11-04T03:34:01.890Z,0
2016-11-04T03:34:42.332Z,0
2016-11-04T03:35:22.835Z,0
2016-11-04T03:36:03.322Z,0
2016-11-04T03:36:43.813Z,0
2016-11-04T03:37:24.300Z,0
2016-11-04T03:38:04.759Z,0
2016-11-04T03:38:45.246Z,0
2016-11-04T03:39:25.751Z,0
2016-11-04T03:40:06.270Z,0
2016-11-04T03:40:46.754Z,0
2016-11-04T03:41:27.239Z,0
2016-11-04T03:42:07.733Z,0
2016-11-04T03:42:48.249Z,0
2016-11-04T03:43:28.747Z,0
2016-11-04T03:44:09.226Z,0
2016-11-04T03:44:49.715Z,0
2016-11-04T03:45:30.185Z,0
2016-11-04T03:46:10.686Z,0
2016-11-04T03:46:51.172Z,0
2016-11-04T03:47:31.645Z,0
2016-11-04T03:48:12.117Z,0
2016-11-04T03:48:52.605Z,0
2016-11-04T03:49:33.061Z,0
2016-11-04T03:50:13.515Z,0
2016-11-04T03:50:54.007Z,0
2016-11-04T03:51:34.486Z,0
2016-11-04T03:52:14.955Z,0
2016-11-04T03:52:55.436Z,0
2016-11-04T03:53:35.915Z,0
2016-11-04T03:54:16.367Z,0
2016-11-04T03:54:56.843Z,0
2016-11-04T03:55:37.340Z,0
2016-11-04T03:56:17.812Z,0
2016-11-04T03:56:58.301Z,0
2016-11-04T03:57:38.778Z,0
2016-11-04T03:58:19.264Z,0
2016-11-04T03:58:59.722Z,0
2016-11-04T03:59:40.201Z,0
2016-11-04T04:00:20.695Z,0
2016-11-04T04:01:01.180Z,0
2016-11-04T04:01:41.687Z,0
2016-11-04T04:02:22.185Z,0
2016-11-04T04:03:02.667Z,0
2016-11-04T04:03:43.145Z,0
2016-11-04T04:04:23.635Z,0
2016-11-04T04:05:04.122Z,0
2016-11-04T04:05:44.640Z,0
2016-11-04T04:06:25.169Z,0
2016-11-04T04:07:05.637Z,0
2016-11-04T04:07:46.115Z,0
2016-11-04T04:08:26.577Z,0
2016-11-04T04:09:07.080Z,0
2016-11-04T04:09:47.553Z,0
2016-11-04T04:10:28.007Z,0
2016-11-04T04:11:08.502Z,0
2016-11-04T04:11:49.004Z,0
2016-11-04T04:12:29.472Z,0
2016-11-04T04:13:09.976Z,0
2016-11-04T04:13:53.190Z,0
2016-11-04T04:14:33.678Z,0
2016-11-04T04:15:14.172Z,0
2016-11-04T04:15:54.620Z,0
2016-11-04T04:16:35.088Z,0
2016-11-04T04:17:15.570Z,0
2016-11-04T04:17:56.044Z,0
2016-11-04T04:18:36.533Z,0
2016-11-04T04:19:16.981Z,0
2016-11-04T04:19:57.486Z,0
2016-11-04T04:20:37.941Z,0
2016-11-04T04:21:18.433Z,0
2016-11-04T04:21:58.883Z,0
2016-11-04T04:22:39.390Z,0
2016-11-04T04:23:19.893Z,0
2016-11-04T04:24:00.395Z,0
2016-11-04T04:24:40.885Z,0
2016-11-04T04:25:21.379Z,0
2016-11-04T04:26:01.819Z,0
2016-11-04T04:26:42.305Z,0
2016-11-04T04:27:22.813Z,0
2016-11-04T04:28:03.258Z,0
2016-11-04T04:28:43.763Z,0
2016-11-04T04:29:24.237Z,0
2016-11-04T04:30:04.797Z,0
2016-11-04T04:30:45.273Z,0
2016-11-04T04:31:25.748Z,0
2016-11-04T04:32:06.263Z,0
2016-11-04T04:32:46.745Z,0
2016-11-04T04:33:27.248Z,0
2016-11-04T04:34:07.735Z,0
2016-11-04T04:34:48.217Z,0
2016-11-04T04:35:28.715Z,0
2016-11-04T04:36:09.198Z,0
2016-11-04T04:36:49.684Z,0
2016-11-04T04:37:30.156Z,0
2016-11-04T04:38:10.657Z,0
2016-11-04T04:38:51.164Z,0
2016-11-04T04:39:31.635Z,0
2016-11-04T04:40:12.115Z,0
2016-11-04T04:40:52.606Z,0
2016-11-04T04:41:33.101Z,0
2016-11-04T04:42:13.569Z,0
2016-11-04T04:42:54.040Z,0
2016-11-04T04:43:34.542Z,0
2016-11-04T04:44:15.030Z,0
2016-11-04T04:44:55.497Z,0
2016-11-04T04:45:35.978Z,0
2016-11-04T04:46:16.448Z,0
2016-11-04T04:46:56.953Z,0
2016-11-04T04:47:37.450Z,0
2016-11-04T04:48:17.951Z,0
2016-11-04T04:48:58.443Z,0
2016-11-04T04:49:38.929Z,0
2016-11-04T04:50:19.395Z,0
2016-11-04T04:50:59.897Z,0
2016-11-04T04:51:40.381Z,0
2016-11-04T04:52:20.866Z,0
2016-11-04T04:53:01.339Z,0
2016-11-04T04:53:41.847Z,0
2016-11-04T04:54:22.298Z,0
2016-11-04T04:55:02.759Z,0
2016-11-04T04:55:43.235Z,0
2016-11-04T04:56:23.778Z,0
2016-11-04T04:57:04.218Z,0
2016-11-04T04:57:44.738Z,0
2016-11-04T04:58:25.207Z,0
2016-11-04T04:59:05.695Z,0
2016-11-04T04:59:46.196Z,0
2016-11-04T05:00:26.677Z,0
2016-11-04T05:01:07.158Z,0
2016-11-04T05:01:47.654Z,0
2016-11-04T05:02:28.107Z,0
2016-11-04T05:03:08.563Z,0
2016-11-04T05:03:49.048Z,0
2016-11-04T05:04:29.533Z,0
2016-11-04T05:05:10.018Z,0
2016-11-04T05:05:50.475Z,0
2016-11-04T05:06:31.007Z,0
2016-11-04T05:07:11.473Z,0
2016-11-04T05:07:51.978Z,0
2016-11-04T05:08:32.503Z,0
2016-11-04T05:09:12.948Z,0
2016-11-04T05:09:53.441Z,0
2016-11-04T05:10:33.930Z,0
2016-11-04T05:11:14.422Z,0
2016-11-04T05:11:54.884Z,0
2016-11-04T05:12:35.385Z,0
2016-11-04T05:13:15.940Z,0
2016-11-04T05:13:56.437Z,0
2016-11-04T05:14:36.880Z,0
2016-11-04T05:15:17.367Z,0
2016-11-04T05:15:57.868Z,0
2016-11-04T05:16:38.319Z,0
2016-11-04T05:17:18.840Z,0
2016-11-04T05:17:59.315Z,0
2016-11-04T05:18:39.807Z,0
2016-11-04T05:19:20.326Z,0
2016-11-04T05:20:07.635Z,0
2016-11-04T05:20:48.082Z,0
2016-11-04T05:21:28.908Z,0
2016-11-04T05:22:09.703Z,0
2016-11-04T05:22:50.197Z,0
2016-11-04T05:23:30.712Z,0
2016-11-04T05:24:11.217Z,0
2016-11-04T05:24:51.696Z,0
2016-11-04T05:25:32.328Z,0
2016-11-04T05:26:12.738Z,0
2016-11-04T05:26:53.224Z,0
2016-11-04T05:27:33.702Z,0
2016-11-04T05:28:14.215Z,0
2016-11-04T05:28:54.680Z,0
2016-11-04T05:29:35.186Z,0
2016-11-04T05:30:15.675Z,0
2016-11-04T05:30:56.182Z,0
2016-11-04T05:31:36.664Z,0
2016-11-04T05:32:17.328Z,0
2016-11-04T05:32:57.873Z,0
2016-11-04T05:33:38.343Z,0
2016-11-04T05:34:18.847Z,0
2016-11-04T05:34:59.342Z,0
2016-11-04T05:35:39.845Z,0
2016-11-04T05:36:20.334Z,0
2016-11-04T05:37:00.822Z,0
2016-11-04T05:37:41.352Z,0
2016-11-04T05:38:21.895Z,0
2016-11-04T05:39:02.416Z,0
2016-11-04T05:39:43.123Z,0
2016-11-04T05:40:23.480Z,0
2016-11-04T05:41:03.957Z,0
2016-11-04T05:41:44.441Z,0
2016-11-04T05:42:24.943Z,0
2016-11-04T05:43:05.437Z,0
2016-11-04T05:43:45.977Z,0
2016-11-04T05:46:04.332Z,0
2016-11-04T05:46:44.822Z,0
2016-11-04T05:47:25.299Z,0
2016-11-04T05:48:05.801Z,0
2016-11-04T05:48:46.282Z,0
2016-11-04T05:49:26.762Z,0
2016-11-04T05:50:07.233Z,0
2016-11-04T05:50:47.715Z,0
2016-11-04T05:51:28.221Z,0
2016-11-04T05:52:08.724Z,0
2016-11-04T05:52:49.217Z,0
2016-11-04T05:53:29.674Z,0
2016-11-04T05:54:10.136Z,0
2016-11-04T05:54:50.664Z,0
2016-11-04T05:55:31.146Z,0
2016-11-04T05:56:11.688Z,0
2016-11-04T05:56:52.248Z,0
2016-11-04T05:57:32.735Z,0
2016-11-04T05:58:13.288Z,0
2016-11-04T05:58:53.810Z,0
2016-11-04T05:59:34.294Z,0
2016-11-04T06:00:14.821Z,0
2016-11-04T06:00:55.374Z,0
2016-11-04T06:01:35.850Z,0
2016-11-04T06:02:16.314Z,0
2016-11-04T06:02:56.821Z,0
2016-11-04T06:03:37.368Z,0
2016-11-04T06:04:17.849Z,0
2016-11-04T06:04:58.313Z,0
2016-11-04T06:05:38.868Z,4
2016-11-04T06:06:19.357Z,4
2016-11-04T06:06:59.834Z,4
2016-11-04T06:07:40.354Z,0
2016-11-04T06:08:20.859Z,0
2016-11-04T06:09:01.366Z,4
2016-11-04T06:09:41.846Z,4
2016-11-04T06:10:22.381Z,4
2016-11-04T06:11:02.857Z,4
2016-11-04T06:11:43.383Z,4
2016-11-04T06:12:23.886Z,8
2016-11-04T06:13:04.429Z,8
2016-11-04T06:13:44.960Z,8
2016-11-04T06:14:25.491Z,8
2016-11-04T06:15:05.961Z,8
2016-11-04T06:15:46.419Z,8
2016-11-04T06:16:26.935Z,12
2016-11-04T06:17:07.397Z,12
2016-11-04T06:17:47.898Z,16
2016-11-04T06:20:16.368Z,16
2016-11-04T06:20:56.824Z,16
2016-11-04T06:21:37.298Z,20
2016-11-04T06:22:17.781Z,16
2016-11-04T06:22:58.281Z,16
2016-11-04T06:23:38.751Z,20
2016-11-04T06:24:19.229Z,20
2016-11-04T06:24:59.738Z,20
2016-11-04T06:25:40.228Z,28
2016-11-04T06:26:20.682Z,32
2016-11-04T06:27:01.163Z,36
2016-11-04T06:27:41.649Z,36
2016-11-04T06:28:22.132Z,32
2016-11-04T06:29:02.610Z,32
2016-11-04T06:29:43.085Z,36
2016-11-04T06:30:23.601Z,32
2016-11-04T06:31:04.077Z,40
2016-11-04T06:31:44.555Z,44
2016-11-04T06:32:25.026Z,52
2016-11-04T06:33:05.528Z,48
2016-11-04T06:33:46.033Z,44
2016-11-04T06:34:26.541Z,40
2016-11-04T06:35:07.051Z,40
2016-11-04T06:35:47.516Z,44
2016-11-04T06:36:28.003Z,36
2016-11-04T06:37:08.478Z,40
2016-11-04T06:37:48.939Z,40
2016-11-04T06:38:29.430Z,32
2016-11-04T06:39:09.898Z,32
2016-11-04T06:39:50.396Z,40
2016-11-04T06:40:30.877Z,44
2016-11-04T06:41:11.363Z,40
2016-11-04T06:41:51.894Z,36
2016-11-04T06:42:32.342Z,44
2016-11-04T06:43:12.836Z,48
2016-11-04T06:43:53.297Z,52
2016-11-04T06:44:33.758Z,56
2016-11-04T06:45:14.242Z,52
2016-11-04T06:45:54.734Z,56
2016-11-04T06:46:35.201Z,64
2016-11-04T06:47:15.664Z,76
2016-11-04T06:47:56.157Z,76
2016-11-04T06:48:36.659Z,72
2016-11-04T06:49:17.142Z,72
2016-11-04T06:49:57.628Z,80
2016-11-04T06:50:38.102Z,92
2016-11-04T06:51:18.578Z,100
2016-11-04T06:51:59.060Z,96
2016-11-04T06:52:39.553Z,104
2016-11-04T06:53:20.028Z,108
2016-11-04T06:54:00.538Z,112
2016-11-04T06:54:40.983Z,116
2016-11-04T06:55:21.463Z,104
2016-11-04T06:56:01.934Z,100
2016-11-04T06:56:42.398Z,100
2016-11-04T06:57:22.904Z,88
2016-11-04T06:58:03.376Z,80
2016-11-04T06:58:43.842Z,80
2016-11-04T06:59:24.330Z,100
2016-11-04T07:00:04.789Z,104
2016-11-04T07:00:45.317Z,108
2016-11-04T07:01:25.766Z,92
2016-11-04T07:02:06.396Z,96
2016-11-04T07:02:48.374Z,88
2016-11-04T07:03:28.864Z,84
2016-11-04T07:04:09.336Z,92
2016-11-04T07:04:49.893Z,116
2016-11-04T07:05:30.433Z,140
2016-11-04T07:06:10.930Z,164
2016-11-04T07:06:51.423Z,168
2016-11-04T07:07:31.883Z,192
2016-11-04T07:08:12.486Z,196
2016-11-04T07:08:54.949Z,224
2016-11-04T07:09:35.501Z,212
2016-11-04T07:10:15.940Z,200
2016-11-04T07:10:56.573Z,200
2016-11-04T07:11:36.962Z,192
2016-11-04T07:12:17.820Z,192
2016-11-04T07:12:58.347Z,180
2016-11-04T07:13:38.862Z,168
2016-11-04T07:14:19.333Z,164
2016-11-04T07:14:59.936Z,132
2016-11-04T07:15:40.701Z,124
2016-11-04T07:16:21.176Z,148
2016-11-04T07:17:01.956Z,152
2016-11-04T07:17:42.330Z,152
2016-11-04T07:18:23.017Z,172
2016-11-04T07:19:03.466Z,152
2016-11-04T07:19:45.138Z,148
2016-11-04T07:20:25.685Z,176
2016-11-04T07:21:06.140Z,192
2016-11-04T07:21:46.655Z,188
2016-11-04T07:22:27.479Z,204
2016-11-04T07:23:07.964Z,192
2016-11-04T07:23:48.439Z,208
2016-11-04T07:24:28.909Z,240
2016-11-04T07:25:09.424Z,344
2016-11-04T07:25:49.917Z,448
2016-11-04T07:26:30.393Z,424
2016-11-04T07:27:10.878Z,456
2016-11-04T07:27:51.365Z,504
2016-11-04T07:28:31.853Z,540
2016-11-04T07:29:12.346Z,484
2016-11-04T07:29:52.856Z,452
2016-11-04T07:30:33.396Z,456
2016-11-04T07:31:13.891Z,432
2016-11-04T07:31:54.360Z,456
2016-11-04T07:32:34.826Z,452
2016-11-04T07:33:16.404Z,432
2016-11-04T07:33:56.844Z,400
2016-11-04T07:34:40.353Z,416
2016-11-04T07:35:22.709Z,448
2016-11-04T07:36:03.176Z,476
2016-11-04T07:36:43.662Z,500
2016-11-04T07:37:24.155Z,584
2016-11-04T07:38:04.636Z,508
2016-11-04T07:38:45.162Z,448
2016-11-04T07:39:25.630Z,448
2016-11-04T07:40:06.108Z,392
2016-11-04T07:40:46.578Z,344
2016-11-04T07:41:27.063Z,356
2016-11-04T07:42:08.897Z,328
2016-11-04T07:42:49.380Z,356
2016-11-04T07:43:29.912Z,360
2016-11-04T07:44:10.369Z,352
2016-11-04T07:44:50.896Z,352
2016-11-04T07:45:35.139Z,320
2016-11-04T07:46:15.644Z,320
2016-11-04T07:46:56.147Z,300
2016-11-04T07:47:36.621Z,316
2016-11-04T07:48:17.123Z,348
2016-11-04T07:48:57.632Z,444
2016-11-04T07:49:38.092Z,588
2016-11-04T07:50:18.642Z,696
2016-11-04T07:50:59.107Z,764
2016-11-04T07:53:33.584Z,796
2016-11-04T07:54:14.076Z,768
2016-11-04T07:54:54.579Z,796
2016-11-04T07:55:35.098Z,736
2016-11-04T07:56:15.589Z,664
2016-11-04T07:56:56.096Z,612
2016-11-04T07:57:36.571Z,652
2016-11-04T07:58:17.071Z,692
2016-11-04T07:58:57.562Z,616
2016-11-04T07:59:38.033Z,604
2016-11-04T08:00:18.521Z,608
2016-11-04T08:00:59.000Z,576
2016-11-04T08:01:39.510Z,528
2016-11-04T08:02:20.025Z,600
2016-11-04T08:03:00.549Z,584
2016-11-04T08:03:41.051Z,544
2016-11-04T08:04:21.542Z,500
2016-11-04T08:05:02.041Z,532
2016-11-04T08:05:42.543Z,484
2016-11-04T08:06:23.032Z,528
2016-11-04T08:07:03.528Z,648
2016-11-04T08:09:37.757Z,872
2016-11-04T08:10:18.362Z,852
2016-11-04T08:10:58.816Z,820
2016-11-04T08:11:39.532Z,780
2016-11-04T08:12:20.191Z,1004
2016-11-04T08:13:00.691Z,1040
2016-11-04T08:13:41.142Z,1072
2016-11-04T08:14:21.633Z,864
2016-11-04T08:15:02.231Z,1004
2016-11-04T08:15:42.713Z,956
2016-11-04T08:16:23.200Z,1256
2016-11-04T08:17:03.783Z,1148
2016-11-04T08:17:44.222Z,1204
2016-11-04T08:18:24.695Z,1088
2016-11-04T08:19:05.372Z,1152
2016-11-04T08:19:45.847Z,1160
2016-11-04T08:20:26.311Z,1172
2016-11-04T08:21:06.786Z,1180
2016-11-04T08:21:47.303Z,1280
2016-11-04T08:22:27.767Z,1216
2016-11-04T08:23:08.499Z,972
2016-11-04T08:23:48.951Z,1144
2016-11-04T08:24:29.399Z,1152
2016-11-04T08:25:09.884Z,1124
2016-11-04T08:25:52.602Z,1152
2016-11-04T08:26:33.124Z,1128
2016-11-04T08:27:13.749Z,1056
2016-11-04T08:27:57.844Z,1208
2016-11-04T08:28:38.357Z,1000
2016-11-04T08:29:18.843Z,844
2016-11-04T08:31:32.222Z,656
2016-11-04T08:32:12.976Z,652
2016-11-04T08:32:53.462Z,668
2016-11-04T08:33:33.974Z,756
2016-11-04T08:34:14.521Z,892
2016-11-04T08:34:55.003Z,908
2016-11-04T08:35:35.453Z,964
2016-11-04T08:36:20.411Z,1012
2016-11-04T08:37:02.155Z,1184
2016-11-04T08:37:42.639Z,1224
2016-11-04T08:38:23.115Z,1308
2016-11-04T08:39:03.603Z,1408
2016-11-04T08:39:44.142Z,1092
2016-11-04T08:40:24.640Z,1044
2016-11-04T08:41:05.117Z,1316
2016-11-04T08:41:45.647Z,1252
2016-11-04T08:42:26.135Z,1088
2016-11-04T08:43:06.599Z,1100
2016-11-04T08:43:47.087Z,988
2016-11-04T08:44:27.598Z,1000
2016-11-04T08:45:10.017Z,1156
2016-11-04T08:45:50.513Z,1008
2016-11-04T08:46:31.037Z,1000
2016-11-04T08:47:11.504Z,1052
2016-11-04T08:47:52.011Z,1092
2016-11-04T08:48:32.491Z,1044
2016-11-04T08:49:12.979Z,1136
2016-11-04T08:49:53.450Z,1316
2016-11-04T08:50:33.953Z,1156
2016-11-04T08:51:14.446Z,1372
2016-11-04T08:51:54.923Z,1312
2016-11-04T08:52:35.428Z,1640
2016-11-04T08:53:15.915Z,1724
2016-11-04T08:53:56.490Z,1916
2016-11-04T08:54:36.957Z,2008
2016-11-04T08:55:17.669Z,2032
2016-11-04T08:55:58.135Z,1768
2016-11-04T08:56:38.809Z,2060
2016-11-04T08:57:19.964Z,1824
2016-11-04T08:58:00.422Z,1804
2016-11-04T08:58:40.971Z,1724
2016-11-04T08:59:21.510Z,1956
2016-11-04T09:00:03.058Z,1704
2016-11-04T09:00:43.606Z,1524
2016-11-04T09:01:24.235Z,1352
2016-11-04T09:02:04.742Z,1304
2016-11-04T09:02:45.252Z,1148
2016-11-04T09:03:25.890Z,1264
2016-11-04T09:04:06.565Z,1140
2016-11-04T09:04:47.062Z,1156
2016-11-04T09:05:27.544Z,1088
2016-11-04T09:06:08.025Z,1024
2016-11-04T09:06:48.499Z,1064
2016-11-04T09:07:28.931Z,1140
2016-11-04T09:08:09.444Z,1184
2016-11-04T09:10:23.687Z,1260
2016-11-04T09:11:04.090Z,1156
2016-11-04T09:11:44.622Z,992
2016-11-04T09:12:25.085Z,996
2016-11-04T09:13:05.570Z,1052
2016-11-04T09:13:46.226Z,1016
2016-11-04T09:14:26.614Z,1032
2016-11-04T09:15:07.100Z,912
2016-11-04T09:15:47.612Z,996
2016-11-04T09:16:28.081Z,888
2016-11-04T09:17:08.564Z,880
2016-11-04T09:17:49.062Z,944
2016-11-04T09:18:29.517Z,928
2016-11-04T09:19:09.989Z,912
2016-11-04T09:19:50.983Z,788
2016-11-04T09:20:31.470Z,1028
2016-11-04T09:21:11.940Z,1436
2016-11-04T09:21:52.435Z,1384
2016-11-04T09:22:32.903Z,1196
2016-11-04T09:23:13.386Z,1060
2016-11-04T09:23:53.867Z,1056
2016-11-04T09:24:34.307Z,1064
2016-11-04T09:26:47.922Z,868
2016-11-04T09:27:29.423Z,680
2016-11-04T09:28:09.878Z,684
2016-11-04T09:28:50.423Z,720
2016-11-04T09:29:31.582Z,708
2016-11-04T09:30:13.059Z,696
2016-11-04T09:30:53.541Z,664
2016-11-04T09:31:34.089Z,820
2016-11-04T09:32:14.587Z,824
2016-11-04T09:32:55.171Z,824
2016-11-04T09:33:35.736Z,864
2016-11-04T09:34:16.221Z,956
2016-11-04T09:34:56.801Z,1000
2016-11-04T09:35:39.115Z,980
2016-11-04T09:36:19.609Z,1048
2016-11-04T09:37:00.990Z,1056
2016-11-04T09:37:41.499Z,776
2016-11-04T09:38:21.978Z,1068
2016-11-04T09:39:02.483Z,928
2016-11-04T09:39:42.995Z,924
2016-11-04T09:40:23.601Z,828
2016-11-04T09:41:06.047Z,900
2016-11-04T09:41:49.550Z,860
2016-11-04T09:42:32.037Z,888
2016-11-04T09:43:17.248Z,964
2016-11-04T09:44:00.024Z,876
2016-11-04T09:44:40.491Z,792
2016-11-04T09:45:20.988Z,980
2016-11-04T09:46:01.520Z,1028
2016-11-04T09:46:42.007Z,1288
2016-11-04T09:47:22.511Z,1516
2016-11-04T09:48:02.975Z,1764
2016-11-04T09:48:43.459Z,1864
2016-11-04T09:49:23.941Z,1996
2016-11-04T09:50:04.433Z,1796
2016-11-04T09:50:44.951Z,1628
2016-11-04T09:51:25.420Z,1808
2016-11-04T09:52:05.922Z,1864
2016-11-04T09:52:46.397Z,1916
2016-11-04T09:53:26.888Z,1660
2016-11-04T09:54:07.391Z,1452
2016-11-04T09:54:47.883Z,1292